Time;durP1;ratioP1;P1;durP2;ratioP2;P2;SDS_P1;SDS_P2;PMS_P1;PMS_P2;Temp;Humidity;BMP_temperature;BMP_pressure;BME280_temperature;BME280_humidity;BME280_pressure;Samples;Min_cycle;Max_cycle;Signal;HPM_P1;HPM_P2
2022/04/02 00:01:43;;;;;;;6.85;2.20;;;2.40;99.90;;;;;;5014405;28;20138;-71
2022/04/02 00:04:09;;;;;;;5.35;1.63;;;2.40;99.90;;;;;;5014443;28;20041;-71
2022/04/02 00:06:35;;;;;;;4.35;1.75;;;2.40;99.90;;;;;;5015229;28;20037;-71
2022/04/02 00:09:02;;;;;;;4.03;1.92;;;2.30;99.90;;;;;;5014306;28;20459;-71
2022/04/02 00:11:28;;;;;;;5.07;2.00;;;2.30;99.90;;;;;;4998032;28;20043;-71
2022/04/02 00:13:53;;;;;;;6.60;2.20;;;2.30;99.90;;;;;;5014599;28;20164;-71
2022/04/02 00:16:19;;;;;;;5.93;2.15;;;2.30;99.90;;;;;;5014320;28;20511;-71
2022/04/02 00:18:44;;;;;;;5.75;2.17;;;2.20;99.90;;;;;;5014112;28;20103;-71
2022/04/02 00:21:10;;;;;;;3.60;1.67;;;2.20;99.90;;;;;;5013599;28;20058;-71
2022/04/02 00:23:36;;;;;;;8.60;2.30;;;2.20;99.90;;;;;;4998899;28;20440;-71
2022/04/02 00:26:09;;;;;;;4.95;2.10;;;2.20;99.90;;;;;;5014225;28;20041;-71
2022/04/02 00:28:36;;;;;;;7.32;2.03;;;2.20;99.90;;;;;;4998781;28;20077;-71
2022/04/02 00:31:03;;;;;;;5.55;1.98;;;2.20;99.90;;;;;;4996911;28;20509;-71
2022/04/02 00:33:29;;;;;;;6.00;2.20;;;2.20;99.90;;;;;;5013187;28;20063;-71
2022/04/02 00:35:54;;;;;;;5.00;2.10;;;2.10;99.90;;;;;;5015000;28;20449;-71
2022/04/02 00:38:20;;;;;;;4.40;2.03;;;2.10;99.90;;;;;;4994548;28;20402;-71
2022/04/02 00:40:46;;;;;;;5.78;2.42;;;2.10;99.90;;;;;;4995332;28;20041;-71
2022/04/02 00:43:37;;;;;;;5.22;1.85;;;2.10;99.90;;;;;;4998249;28;20100;-71
2022/04/02 00:46:08;;;;;;;5.95;2.20;;;2.00;99.90;;;;;;4998512;28;20068;-71
2022/04/02 00:48:34;;;;;;;5.23;2.10;;;2.00;99.90;;;;;;5012865;28;20078;-71
2022/04/02 00:51:02;;;;;;;6.72;2.20;;;1.90;99.90;;;;;;4998604;28;20515;-71
2022/04/02 00:53:32;;;;;;;6.50;2.40;;;1.80;99.90;;;;;;4997571;28;20053;-71
2022/04/02 00:56:03;;;;;;;5.60;2.33;;;1.90;99.90;;;;;;4997502;28;20481;-71
2022/04/02 00:58:29;;;;;;;5.35;2.03;;;1.80;99.90;;;;;;5013921;28;20128;-71
2022/04/02 01:00:54;;;;;;;6.63;2.28;;;1.90;99.90;;;;;;5000751;28;20060;-71
2022/04/02 01:03:21;;;;;;;5.63;1.85;;;1.90;99.90;;;;;;5017250;28;20368;-71
2022/04/02 01:05:48;;;;;;;4.93;1.90;;;1.80;99.90;;;;;;5016338;28;20049;-71
2022/04/02 01:08:13;;;;;;;5.13;2.20;;;1.80;99.90;;;;;;5016480;28;20087;-71
2022/04/02 01:10:39;;;;;;;6.38;2.50;;;1.80;99.90;;;;;;5017631;28;20037;-71
2022/04/02 01:13:06;;;;;;;5.43;2.30;;;1.80;99.90;;;;;;5001710;28;20044;-71
2022/04/02 01:15:32;;;;;;;6.32;2.40;;;1.80;99.90;;;;;;5015021;28;20045;-71
2022/04/02 01:17:58;;;;;;;5.45;2.15;;;1.80;99.90;;;;;;5017438;28;20033;-71
2022/04/02 01:20:26;;;;;;;5.65;2.20;;;1.70;99.90;;;;;;5017229;28;20492;-70
2022/04/02 01:22:51;;;;;;;6.43;2.25;;;1.60;99.90;;;;;;5018227;28;20400;-71
2022/04/02 01:25:17;;;;;;;4.45;2.00;;;1.60;99.90;;;;;;5000755;28;20045;-71
2022/04/02 01:27:46;;;;;;;5.10;2.03;;;1.60;99.90;;;;;;5000702;28;20481;-71
2022/04/02 01:30:13;;;;;;;6.38;2.25;;;1.60;99.90;;;;;;5016800;28;20046;-71
2022/04/02 01:32:39;;;;;;;7.38;2.63;;;1.60;99.90;;;;;;5017740;28;20045;-71
2022/04/02 01:35:05;;;;;;;4.43;1.98;;;1.60;99.90;;;;;;5016790;28;20047;-70
2022/04/02 01:37:32;;;;;;;5.18;2.15;;;1.50;99.90;;;;;;5016708;28;20080;-71
2022/04/02 01:39:57;;;;;;;5.57;2.30;;;1.50;99.90;;;;;;5000684;28;20042;-71
2022/04/02 01:42:24;;;;;;;5.10;2.25;;;1.60;99.90;;;;;;5000249;28;20045;-70
2022/04/02 01:44:51;;;;;;;5.45;2.22;;;1.60;99.90;;;;;;5016546;28;20076;-71
2022/04/02 01:47:21;;;;;;;7.20;2.80;;;1.60;99.90;;;;;;5016822;28;20540;-71
2022/04/02 01:49:48;;;;;;;7.10;2.60;;;1.60;99.90;;;;;;5000113;28;20168;-70
2022/04/02 01:52:19;;;;;;;5.65;2.33;;;1.60;99.90;;;;;;5017144;28;20171;-71
2022/04/02 01:54:46;;;;;;;5.00;2.22;;;1.60;99.90;;;;;;5016248;28;20042;-71
2022/04/02 01:57:12;;;;;;;5.03;2.03;;;1.60;99.90;;;;;;5000062;28;20052;-71
2022/04/02 01:59:40;;;;;;;5.22;2.30;;;1.60;99.90;;;;;;5015331;28;20034;-71
2022/04/02 02:02:07;;;;;;;6.97;2.42;;;1.60;99.90;;;;;;5017216;28;20041;-70
2022/04/02 02:04:33;;;;;;;4.97;2.30;;;1.60;99.90;;;;;;5015250;28;20043;-71
2022/04/02 02:07:00;;;;;;;5.28;2.13;;;1.50;99.90;;;;;;5000476;28;20492;-70
2022/04/02 02:09:25;;;;;;;9.63;3.00;;;1.50;99.90;;;;;;5016223;28;20536;-70
2022/04/02 02:11:51;;;;;;;5.28;2.13;;;1.60;99.90;;;;;;5014908;28;20116;-70
2022/04/02 02:14:16;;;;;;;7.22;2.47;;;1.50;99.90;;;;;;5000741;28;20048;-70
2022/04/02 02:16:42;;;;;;;6.15;2.30;;;1.50;99.90;;;;;;4999534;28;20038;-70
2022/04/02 02:19:08;;;;;;;7.28;2.15;;;1.50;99.90;;;;;;5016948;28;20033;-71
2022/04/02 02:21:33;;;;;;;3.92;1.85;;;1.50;99.90;;;;;;5014890;28;20061;-70
2022/04/02 02:23:59;;;;;;;6.00;2.17;;;1.50;99.90;;;;;;5015945;28;20037;-70
2022/04/02 02:26:25;;;;;;;7.38;2.50;;;1.50;99.90;;;;;;5015061;28;20077;-70
2022/04/02 02:28:51;;;;;;;5.85;2.35;;;1.40;99.90;;;;;;5016593;28;20046;-70
2022/04/02 02:31:16;;;;;;;6.20;2.40;;;1.40;99.90;;;;;;5015782;28;20049;-70
2022/04/02 02:36:26;;;;;;;7.07;2.40;;;1.40;99.90;;;;;;5015415;28;20049;-70
2022/04/02 02:38:52;;;;;;;9.32;2.88;;;1.30;99.90;;;;;;5015502;28;20033;-70
2022/04/02 02:41:18;;;;;;;6.07;2.35;;;1.30;99.90;;;;;;5016719;28;20045;-70
2022/04/02 02:43:44;;;;;;;5.57;2.08;;;1.20;99.90;;;;;;5014509;28;20083;-70
2022/04/02 02:46:14;;;;;;;6.55;2.45;;;1.20;99.90;;;;;;4999451;28;20037;-70
2022/04/02 02:48:40;;;;;;;7.75;2.30;;;1.20;99.90;;;;;;5015264;28;20041;-70
2022/04/02 02:51:06;;;;;;;6.18;1.83;;;1.20;99.90;;;;;;5013212;28;20044;-70
2022/04/02 02:53:31;;;;;;;6.78;2.58;;;1.10;99.90;;;;;;4994596;28;20041;-70
2022/04/02 02:55:57;;;;;;;6.40;2.30;;;1.10;99.90;;;;;;5021010;28;20091;-71
2022/04/02 02:58:22;;;;;;;5.88;2.28;;;1.10;99.90;;;;;;4997640;28;20045;-71
2022/04/02 03:00:48;;;;;;;5.53;2.38;;;1.20;99.90;;;;;;5013795;28;20037;-70
2022/04/02 03:03:13;;;;;;;5.43;2.47;;;1.20;99.90;;;;;;5016013;28;20094;-70
2022/04/02 03:05:40;;;;;;;4.60;2.10;;;1.20;99.90;;;;;;5012399;28;20103;-70
2022/04/02 03:08:05;;;;;;;6.43;2.08;;;1.20;99.90;;;;;;5014395;28;20041;-70
2022/04/02 03:10:31;;;;;;;5.50;2.20;;;1.20;99.90;;;;;;5013393;28;20171;-70
2022/04/02 03:12:59;;;;;;;6.28;2.55;;;1.20;99.90;;;;;;5015749;28;20041;-70
2022/04/02 03:15:25;;;;;;;6.05;2.30;;;1.30;99.90;;;;;;5015544;28;20049;-70
2022/04/02 03:17:52;;;;;;;6.75;2.33;;;1.30;99.90;;;;;;4999672;28;20041;-70
2022/04/02 03:20:20;;;;;;;6.90;2.53;;;1.30;99.90;;;;;;4997997;28;20091;-70
2022/04/02 03:22:47;;;;;;;5.70;2.40;;;1.30;99.90;;;;;;5014198;28;20037;-70
2022/04/02 03:25:18;;;;;;;6.20;1.98;;;1.30;99.90;;;;;;5014736;28;20071;-70
2022/04/02 03:27:45;;;;;;;7.22;2.45;;;1.30;99.90;;;;;;5014965;28;20048;-70
2022/04/02 03:30:12;;;;;;;4.53;1.90;;;1.30;99.90;;;;;;5014410;28;20037;-70
2022/04/02 03:32:39;;;;;;;3.70;1.80;;;1.20;99.90;;;;;;4996667;28;20041;-70
2022/04/02 03:35:06;;;;;;;5.63;2.00;;;1.20;99.90;;;;;;4998519;28;20476;-70
2022/04/02 03:37:36;;;;;;;5.78;1.98;;;1.20;99.90;;;;;;5015637;28;20049;-70
2022/04/02 03:40:04;;;;;;;5.13;2.00;;;1.20;99.90;;;;;;5003992;28;20041;-71
2022/04/02 03:42:29;;;;;;;4.82;2.20;;;1.20;99.90;;;;;;4995821;28;20494;-70
2022/04/02 03:44:55;;;;;;;7.05;2.47;;;1.20;99.90;;;;;;4996388;28;20034;-70
2022/04/02 03:47:22;;;;;;;6.28;2.00;;;1.20;99.90;;;;;;5014664;28;20044;-70
2022/04/02 03:49:49;;;;;;;5.63;1.95;;;1.10;99.90;;;;;;4993899;28;20378;-70
2022/04/02 03:52:15;;;;;;;5.38;1.98;;;1.10;99.90;;;;;;5015353;28;20049;-70
2022/04/02 03:54:41;;;;;;;5.70;2.28;;;1.10;99.90;;;;;;5010705;28;20505;-70
2022/04/02 03:57:09;;;;;;;6.38;2.28;;;1.10;99.90;;;;;;5014194;28;20186;-70
2022/04/02 03:59:35;;;;;;;6.78;1.90;;;1.10;99.90;;;;;;4997941;28;20034;-70
2022/04/02 04:02:00;;;;;;;6.97;2.30;;;1.10;99.90;;;;;;4998960;28;20037;-70
2022/04/02 04:04:27;;;;;;;7.00;2.28;;;1.10;99.90;;;;;;5012386;28;20033;-70
2022/04/02 04:06:54;;;;;;;6.10;2.17;;;1.00;99.90;;;;;;5015274;28;20053;-70
2022/04/02 04:09:20;;;;;;;8.82;2.15;;;1.00;99.90;;;;;;5014215;28;20049;-70
2022/04/02 04:11:47;;;;;;;9.48;2.13;;;1.10;99.90;;;;;;5014090;28;20099;-70
2022/04/02 04:14:14;;;;;;;5.13;2.05;;;1.10;99.90;;;;;;4998831;28;20046;-70
2022/04/02 04:16:41;;;;;;;7.63;2.10;;;1.10;99.90;;;;;;5006831;28;20713;-70
2022/04/02 04:19:06;;;;;;;4.88;1.98;;;1.10;99.90;;;;;;4997759;28;20034;-70
2022/04/02 04:21:34;;;;;;;4.13;1.80;;;1.10;99.90;;;;;;5011362;28;20041;-70
2022/04/02 04:24:00;;;;;;;5.43;1.90;;;1.10;99.90;;;;;;5014531;28;20041;-70
2022/04/02 04:26:25;;;;;;;5.85;1.90;;;1.10;99.90;;;;;;4996769;28;20057;-71
2022/04/02 04:28:51;;;;;;;6.93;2.22;;;1.10;99.90;;;;;;4997183;28;20037;-70
2022/04/02 04:31:18;;;;;;;4.97;2.00;;;1.10;99.90;;;;;;5013807;28;20049;-70
2022/04/02 04:33:48;;;;;;;4.78;1.88;;;1.10;99.90;;;;;;5013878;28;20523;-70
2022/04/02 04:36:22;;;;;;;7.18;2.15;;;1.10;99.90;;;;;;5017768;28;20037;-70
2022/04/02 04:38:49;;;;;;;5.68;1.85;;;1.10;99.90;;;;;;5017840;28;20045;-70
2022/04/02 04:41:17;;;;;;;7.50;2.20;;;1.10;99.90;;;;;;5017102;28;20029;-71
2022/04/02 04:43:43;;;;;;;5.53;2.30;;;1.00;99.90;;;;;;5016051;28;20036;-72
2022/04/02 04:46:09;;;;;;;4.30;1.80;;;1.00;99.90;;;;;;5001500;28;20095;-71
2022/04/02 04:48:35;;;;;;;8.30;2.08;;;1.00;99.90;;;;;;4998231;28;20506;-71
2022/04/02 04:51:02;;;;;;;5.68;2.08;;;1.00;99.90;;;;;;4983523;28;20144;-70
2022/04/02 04:53:28;;;;;;;4.80;1.90;;;1.00;99.90;;;;;;5016699;28;20049;-71
2022/04/02 04:55:54;;;;;;;5.95;2.08;;;1.00;99.90;;;;;;5016772;28;20056;-70
2022/04/02 04:58:20;;;;;;;5.68;2.03;;;0.90;99.90;;;;;;5017367;28;20041;-71
2022/04/02 05:00:45;;;;;;;4.65;1.73;;;0.90;99.90;;;;;;5016169;28;20037;-70
2022/04/02 05:03:12;;;;;;;6.88;2.10;;;0.90;99.90;;;;;;5018281;28;20164;-70
2022/04/02 05:05:38;;;;;;;5.88;2.05;;;1.00;99.90;;;;;;5017319;28;20467;-71
2022/04/02 05:08:07;;;;;;;4.40;1.88;;;1.00;99.90;;;;;;5017162;28;20051;-70
2022/04/02 05:10:34;;;;;;;5.63;1.90;;;1.00;99.90;;;;;;5017045;28;20045;-70
2022/04/02 05:13:01;;;;;;;5.57;2.10;;;1.00;99.90;;;;;;5016796;28;20124;-70
2022/04/02 05:15:26;;;;;;;7.95;2.15;;;1.10;99.90;;;;;;5017229;28;20073;-71
2022/04/02 05:17:53;;;;;;;5.68;1.88;;;1.10;99.90;;;;;;5013486;28;20076;-70
2022/04/02 05:20:18;;;;;;;7.40;2.05;;;1.10;99.90;;;;;;4997837;28;20125;-70
2022/04/02 05:22:44;;;;;;;5.65;2.00;;;1.10;99.90;;;;;;5015958;28;20544;-71
2022/04/02 05:25:14;;;;;;;5.35;2.20;;;1.20;99.90;;;;;;5000530;28;20075;-71
2022/04/02 05:27:40;;;;;;;5.50;2.08;;;1.20;99.90;;;;;;5016599;28;20037;-71
2022/04/02 05:30:07;;;;;;;6.88;2.22;;;1.20;99.90;;;;;;5000612;28;20404;-71
2022/04/02 05:32:32;;;;;;;6.40;2.13;;;1.20;99.90;;;;;;5016478;28;20052;-70
2022/04/02 05:34:58;;;;;;;6.40;2.03;;;1.30;99.90;;;;;;4999457;28;20045;-71
2022/04/02 05:37:24;;;;;;;4.78;2.10;;;1.30;99.90;;;;;;5017648;28;20083;-71
2022/04/02 05:39:50;;;;;;;8.30;1.98;;;1.30;99.90;;;;;;5015558;28;20033;-71
2022/04/02 05:42:16;;;;;;;4.72;2.03;;;1.30;99.90;;;;;;5000646;28;20394;-71
2022/04/02 05:44:42;;;;;;;6.45;2.70;;;1.30;99.90;;;;;;5017164;28;20151;-70
2022/04/02 05:47:09;;;;;;;5.57;2.05;;;1.30;99.90;;;;;;4989233;28;20045;-71
2022/04/02 05:49:35;;;;;;;7.30;2.42;;;1.40;99.90;;;;;;5000069;28;20086;-71
2022/04/02 05:52:00;;;;;;;7.43;2.58;;;1.40;99.90;;;;;;5014378;28;20128;-70
2022/04/02 05:54:26;;;;;;;6.53;2.28;;;1.40;99.90;;;;;;4998954;28;20041;-71
2022/04/02 05:56:55;;;;;;;5.03;2.10;;;1.40;99.90;;;;;;5016310;28;20052;-70
2022/04/02 05:59:21;;;;;;;8.32;2.25;;;1.40;99.90;;;;;;5016043;28;20112;-71
2022/04/02 06:01:47;;;;;;;8.00;2.60;;;1.40;99.90;;;;;;5014445;28;20421;-71
2022/04/02 06:04:13;;;;;;;7.18;2.80;;;1.50;99.90;;;;;;5014557;28;20037;-70
2022/04/02 06:06:39;;;;;;;7.90;2.40;;;1.50;99.90;;;;;;5012305;28;20045;-71
2022/04/02 06:09:05;;;;;;;5.95;2.72;;;1.50;99.90;;;;;;5016796;28;20044;-71
2022/04/02 06:11:30;;;;;;;7.40;2.80;;;1.60;99.90;;;;;;5002722;28;20112;-71
2022/04/02 06:13:59;;;;;;;8.95;2.63;;;1.60;99.90;;;;;;5012996;28;20041;-70
2022/04/02 06:16:26;;;;;;;7.78;2.65;;;1.70;99.90;;;;;;5014925;28;20044;-71
2022/04/02 06:18:52;;;;;;;6.55;2.65;;;1.80;99.90;;;;;;5017022;28;20079;-70
2022/04/02 06:21:18;;;;;;;6.53;2.97;;;1.80;99.90;;;;;;5014552;28;20065;-70
2022/04/02 06:23:44;;;;;;;9.52;2.85;;;2.00;99.90;;;;;;5014365;28;20125;-71
2022/04/02 06:26:10;;;;;;;8.32;2.60;;;2.00;99.90;;;;;;5000294;28;20140;-71
2022/04/02 06:28:37;;;;;;;8.05;2.83;;;2.10;99.90;;;;;;5015984;28;20033;-71
2022/04/02 06:31:03;;;;;;;7.88;2.92;;;2.10;99.90;;;;;;5013598;28;20045;-71
2022/04/02 06:33:30;;;;;;;10.07;2.78;;;2.10;99.90;;;;;;4999060;28;20045;-71
2022/04/02 06:35:56;;;;;;;6.60;2.65;;;2.20;99.90;;;;;;4980290;28;20490;-71
2022/04/02 06:38:21;;;;;;;6.05;2.40;;;2.30;99.90;;;;;;4996626;28;20065;-71
2022/04/02 06:40:47;;;;;;;9.05;2.90;;;2.40;99.90;;;;;;5013191;28;20038;-71
2022/04/02 06:43:13;;;;;;;7.88;3.03;;;2.50;99.90;;;;;;4998725;28;20045;-71
2022/04/02 06:45:39;;;;;;;6.43;2.45;;;2.60;99.90;;;;;;5013423;28;20112;-71
2022/04/02 06:48:04;;;;;;;7.18;2.63;;;2.80;99.90;;;;;;5016402;28;20129;-71
2022/04/02 06:50:30;;;;;;;6.07;2.25;;;2.80;99.90;;;;;;4997861;28;20049;-71
2022/04/02 06:52:56;;;;;;;8.05;2.42;;;2.90;99.90;;;;;;5014826;28;20052;-71
2022/04/02 06:55:21;;;;;;;6.43;2.30;;;3.00;99.90;;;;;;5034080;28;20046;-71
2022/04/02 06:57:53;;;;;;;7.32;2.20;;;3.10;99.90;;;;;;5015304;28;20044;-71
2022/04/02 07:00:20;;;;;;;5.20;2.03;;;3.20;99.90;;;;;;4998253;28;20037;-72
2022/04/02 07:02:46;;;;;;;6.97;2.65;;;3.30;99.90;;;;;;4979834;28;20041;-72
2022/04/02 07:05:12;;;;;;;6.35;2.30;;;3.30;99.90;;;;;;5003305;28;20029;-72
2022/04/02 07:07:37;;;;;;;6.85;2.47;;;3.40;99.90;;;;;;5013662;28;20448;-72
2022/04/02 07:10:04;;;;;;;5.15;1.98;;;3.40;99.90;;;;;;5016032;28;20033;-72
2022/04/02 07:12:31;;;;;;;7.75;2.50;;;3.40;99.90;;;;;;4997929;28;20037;-72
2022/04/02 07:14:57;;;;;;;6.53;1.95;;;3.50;99.90;;;;;;5026311;28;20041;-72
2022/04/02 07:17:23;;;;;;;8.52;2.47;;;3.60;99.90;;;;;;4998417;28;20404;-72
2022/04/02 07:19:54;;;;;;;4.45;1.67;;;3.60;99.90;;;;;;5028029;28;20037;-72
2022/04/02 07:22:22;;;;;;;6.85;1.90;;;3.70;99.90;;;;;;5014331;28;20103;-72
2022/04/02 07:24:49;;;;;;;7.75;2.20;;;3.80;99.90;;;;;;4991681;28;20120;-73
2022/04/02 07:27:16;;;;;;;5.07;2.35;;;3.80;99.90;;;;;;4996153;28;20048;-71
2022/04/02 07:29:42;;;;;;;7.85;2.28;;;3.80;99.90;;;;;;5012761;28;20049;-72
2022/04/02 07:32:09;;;;;;;6.22;2.42;;;3.80;99.90;;;;;;5025299;28;20160;-72
2022/04/02 07:34:35;;;;;;;4.93;2.00;;;3.80;99.90;;;;;;5012739;28;20056;-71
2022/04/02 07:37:27;;;;;;;6.10;2.40;;;3.90;99.90;;;;;;5014191;28;20401;-72
2022/04/02 07:40:17;;;;;;;8.43;2.30;;;4.00;99.90;;;;;;4997384;28;20443;-71
2022/04/02 07:43:02;;;;;;;8.07;2.22;;;4.10;99.90;;;;;;4997066;28;20069;-72
2022/04/02 07:45:32;;;;;;;6.80;2.28;;;4.20;99.90;;;;;;4998178;28;20045;-72
2022/04/02 07:47:58;;;;;;;7.13;2.40;;;4.20;99.90;;;;;;5013218;28;20049;-72
2022/04/02 07:50:26;;;;;;;6.32;1.80;;;4.20;99.90;;;;;;5011992;28;20065;-72
2022/04/02 07:52:54;;;;;;;5.10;1.48;;;4.30;99.90;;;;;;4991253;28;20048;-72
2022/04/02 07:55:21;;;;;;;4.53;1.55;;;4.20;99.90;;;;;;5014166;28;20044;-72
2022/04/02 07:57:49;;;;;;;6.63;1.80;;;4.20;99.90;;;;;;5014311;28;20081;-73
2022/04/02 08:00:19;;;;;;;5.07;1.65;;;4.10;99.90;;;;;;5014965;28;20083;-72
2022/04/02 08:02:46;;;;;;;9.15;1.80;;;4.10;99.90;;;;;;5014385;28;20041;-72
2022/04/02 08:05:14;;;;;;;5.68;1.83;;;4.10;99.90;;;;;;5014189;28;20034;-72
2022/04/02 08:07:49;;;;;;;6.00;1.70;;;4.00;99.90;;;;;;4998287;28;20420;-73
2022/04/02 08:10:18;;;;;;;4.75;1.70;;;4.00;99.90;;;;;;5018674;28;20037;-72
2022/04/02 08:12:44;;;;;;;5.10;1.90;;;4.00;99.90;;;;;;5018407;28;20042;-72
2022/04/02 08:15:12;;;;;;;5.03;1.60;;;4.00;99.90;;;;;;5002294;28;20041;-72
2022/04/02 08:17:39;;;;;;;6.38;1.77;;;4.00;99.90;;;;;;5001520;28;20033;-72
2022/04/02 08:20:05;;;;;;;4.85;1.85;;;4.00;99.90;;;;;;5018987;28;20037;-72
2022/04/02 08:22:31;;;;;;;4.15;1.60;;;3.90;99.90;;;;;;5016396;28;20485;-72
2022/04/02 08:24:58;;;;;;;5.70;2.08;;;4.10;99.90;;;;;;5018652;28;20159;-72
2022/04/02 08:27:52;;;;;;;5.03;1.92;;;4.20;99.90;;;;;;5001661;28;20102;-72
2022/04/02 08:30:34;;;;;;;4.90;1.83;;;4.20;99.90;;;;;;5001215;28;20094;-73
2022/04/02 08:33:32;;;;;;;6.57;1.58;;;4.40;99.90;;;;;;5001463;28;20408;-73
2022/04/02 08:36:21;;;;;;;3.90;1.70;;;4.40;99.90;;;;;;4999080;28;20037;-72
2022/04/02 08:39:13;;;;;;;5.43;1.75;;;4.50;99.90;;;;;;5000899;28;20432;-72
2022/04/02 08:42:17;;;;;;;4.07;1.52;;;4.60;99.90;;;;;;4994167;28;20041;-72
2022/04/02 08:45:01;;;;;;;4.60;1.60;;;4.60;99.90;;;;;;4999486;28;20045;-72
2022/04/02 08:47:49;;;;;;;5.35;2.15;;;4.60;99.90;;;;;;5002485;28;20048;-73
2022/04/02 08:50:16;;;;;;;4.47;1.58;;;4.80;99.90;;;;;;5018112;28;20068;-72
2022/04/02 08:53:01;;;;;;;5.65;2.00;;;4.80;99.90;;;;;;4999692;28;20041;-72
2022/04/02 08:55:41;;;;;;;5.50;1.88;;;4.80;99.90;;;;;;5014972;28;20128;-72
2022/04/02 08:58:18;;;;;;;5.32;1.98;;;4.70;99.90;;;;;;5017519;28;20045;-73
2022/04/02 09:00:53;;;;;;;5.88;1.73;;;4.70;99.90;;;;;;4997074;28;20038;-72
2022/04/02 09:03:45;;;;;;;3.53;1.40;;;4.70;99.90;;;;;;4998328;28;20041;-73
2022/04/02 09:06:37;;;;;;;5.20;1.88;;;4.80;99.90;;;;;;5013965;28;20044;-72
2022/04/02 09:09:07;;;;;;;4.55;1.70;;;4.80;99.90;;;;;;4991660;28;20083;-72
2022/04/02 09:12:10;;;;;;;4.80;1.67;;;4.80;99.90;;;;;;5017812;28;20057;-72
2022/04/02 09:14:59;;;;;;;4.78;1.63;;;4.80;99.90;;;;;;4999392;28;20049;-73
2022/04/02 09:17:46;;;;;;;4.75;1.80;;;4.70;99.90;;;;;;5006025;28;20551;-72
2022/04/02 09:20:41;;;;;;;5.55;1.33;;;4.70;99.90;;;;;;5000875;28;20069;-72
2022/04/02 09:23:15;;;;;;;6.30;1.58;;;4.70;99.90;;;;;;5010297;28;20049;-72
2022/04/02 09:26:11;;;;;;;3.45;1.23;;;4.70;99.90;;;;;;5002373;28;20045;-72
2022/04/02 09:29:06;;;;;;;6.28;1.50;;;4.60;99.90;;;;;;5012765;28;20401;-72
2022/04/02 09:32:24;;;;;;;5.13;1.63;;;4.50;99.90;;;;;;5018164;28;20397;-72
2022/04/02 09:35:31;;;;;;;5.70;1.25;;;4.50;99.90;;;;;;4936175;29;20559;-72
2022/04/02 09:38:32;;;;;;;3.58;1.48;;;4.50;99.90;;;;;;4922208;29;20654;-72
2022/04/02 09:41:21;;;;;;;4.47;1.60;;;4.40;99.90;;;;;;4996505;28;20091;-72
2022/04/02 09:44:02;;;;;;;2.72;1.00;;;4.50;99.90;;;;;;5017607;28;20124;-72
2022/04/02 09:46:39;;;;;;;4.10;1.25;;;4.50;99.90;;;;;;5016258;28;20038;-71
2022/04/02 09:49:27;;;;;;;5.63;1.60;;;4.50;99.90;;;;;;5015030;28;20583;-74
2022/04/02 09:52:05;;;;;;;4.22;1.40;;;4.60;99.90;;;;;;4993234;28;20045;-72
2022/04/02 09:54:36;;;;;;;5.68;1.55;;;4.60;99.90;;;;;;5013304;28;20099;-72
2022/04/02 09:57:15;;;;;;;2.63;1.10;;;4.70;99.90;;;;;;5012013;28;20033;-72
2022/04/02 10:00:03;;;;;;;4.65;1.40;;;4.90;99.90;;;;;;5011510;28;20080;-73
2022/04/02 10:02:49;;;;;;;5.00;1.60;;;5.10;98.70;;;;;;4984857;28;20038;-72
2022/04/02 10:05:22;;;;;;;2.42;1.15;;;5.30;99.60;;;;;;5013841;28;20044;-72
2022/04/02 10:08:04;;;;;;;3.05;1.30;;;5.60;98.20;;;;;;4999309;28;20116;-72
2022/04/02 10:10:30;;;;;;;2.00;0.90;;;5.50;97.00;;;;;;5015816;28;20049;-72
2022/04/02 10:12:57;;;;;;;2.47;1.05;;;5.50;95.30;;;;;;4997958;28;20485;-75
2022/04/02 10:15:23;;;;;;;3.47;1.58;;;5.30;96.00;;;;;;4999249;28;20045;-73
2022/04/02 10:17:52;;;;;;;5.38;2.25;;;5.20;97.40;;;;;;5014922;28;20523;-74
2022/04/02 10:20:28;;;;;;;6.53;2.33;;;4.80;99.90;;;;;;5017157;28;20037;-74
2022/04/02 10:23:14;;;;;;;6.10;2.20;;;4.60;99.90;;;;;;5013841;28;20103;-74
2022/04/02 10:26:14;;;;;;;2.83;1.40;;;4.80;99.90;;;;;;4994903;28;20433;-73
2022/04/02 10:28:56;;;;;;;5.38;1.33;;;4.90;99.90;;;;;;5000172;28;20037;-73
2022/04/02 10:31:37;;;;;;;3.10;0.90;;;5.10;99.90;;;;;;4997404;28;20046;-74
2022/04/02 10:34:29;;;;;;;5.03;1.35;;;5.50;99.90;;;;;;5009901;28;20094;-74
2022/04/02 10:37:09;;;;;;;2.95;1.17;;;5.90;98.20;;;;;;5013643;28;20121;-73
2022/04/02 10:39:41;;;;;;;2.70;0.75;;;6.20;81.20;;;;;;4993260;28;20038;-74
2022/04/02 10:42:12;;;;;;;3.00;1.02;;;6.20;92.40;;;;;;5015002;28;20077;-74
2022/04/02 10:44:55;;;;;;;3.20;1.25;;;6.30;87.90;;;;;;4999851;28;20037;-74
2022/04/02 10:47:27;;;;;;;2.67;1.17;;;6.30;85.30;;;;;;5014966;28;20077;-74
2022/04/02 10:50:05;;;;;;;4.22;1.42;;;6.10;79.60;;;;;;5014922;28;20044;-74
2022/04/02 10:52:31;;;;;;;4.22;1.35;;;6.10;89.40;;;;;;4996696;28;20523;-74
2022/04/02 10:54:57;;;;;;;4.75;1.30;;;6.30;91.40;;;;;;4999975;28;20397;-74
2022/04/02 10:57:27;;;;;;;3.95;1.38;;;6.20;85.80;;;;;;5015239;28;20052;-73
2022/04/02 10:59:59;;;;;;;5.43;1.58;;;6.10;88.50;;;;;;5016555;28;20037;-73
2022/04/02 11:02:36;;;;;;;6.35;1.42;;;5.90;90.30;;;;;;4995899;28;20049;-73
2022/04/02 11:05:07;;;;;;;7.88;1.70;;;5.70;90.10;;;;;;5015448;28;20037;-73
2022/04/02 11:07:41;;;;;;;7.38;1.55;;;5.50;93.90;;;;;;4995083;28;20102;-74
2022/04/02 11:10:08;;;;;;;4.18;1.40;;;5.30;93.80;;;;;;4997914;28;20029;-73
2022/04/02 11:12:44;;;;;;;4.10;1.65;;;5.30;94.40;;;;;;5014826;28;20033;-73
2022/04/02 11:15:24;;;;;;;4.57;1.30;;;5.30;97.70;;;;;;5014524;28;20483;-73
2022/04/02 11:17:55;;;;;;;4.72;1.63;;;5.20;94.70;;;;;;4997230;28;20033;-73
2022/04/02 11:20:22;;;;;;;4.78;1.27;;;5.20;94.30;;;;;;5013941;28;20037;-72
2022/04/02 11:22:51;;;;;;;3.33;1.30;;;5.30;96.40;;;;;;4999532;28;20099;-74
2022/04/02 11:25:25;;;;;;;5.65;1.77;;;5.40;96.20;;;;;;5001769;28;20132;-74
2022/04/02 11:27:56;;;;;;;2.88;1.42;;;5.50;96.20;;;;;;4980217;28;20409;-74
2022/04/02 11:30:27;;;;;;;2.83;1.40;;;5.50;93.80;;;;;;4996266;28;20045;-73
2022/04/02 11:33:08;;;;;;;3.72;1.10;;;5.50;94.20;;;;;;4999469;28;20049;-73
2022/04/02 11:35:43;;;;;;;3.15;1.15;;;5.50;95.40;;;;;;4997376;28;20052;-73
2022/04/02 11:38:17;;;;;;;5.47;1.38;;;5.70;97.50;;;;;;4997350;28;20095;-73
2022/04/02 11:40:50;;;;;;;2.97;1.08;;;5.80;94.80;;;;;;5006720;28;20049;-73
2022/04/02 11:43:17;;;;;;;4.40;1.10;;;6.10;96.10;;;;;;4997782;28;20405;-74
2022/04/02 11:45:46;;;;;;;2.95;1.10;;;6.40;93.20;;;;;;4995754;28;20569;-74
2022/04/02 11:48:14;;;;;;;1.48;0.80;;;6.40;84.20;;;;;;5006897;28;20451;-74
2022/04/02 11:50:44;;;;;;;4.00;1.77;;;6.50;82.60;;;;;;4995864;28;20486;-74
2022/04/02 11:53:13;;;;;;;1.98;0.98;;;6.50;80.40;;;;;;4996861;28;20133;-74
2022/04/02 11:55:41;;;;;;;2.83;1.20;;;6.40;82.60;;;;;;4995286;28;20049;-72
2022/04/02 11:58:09;;;;;;;4.40;1.40;;;6.50;84.70;;;;;;5015359;28;20034;-71
2022/04/02 12:00:40;;;;;;;5.50;1.67;;;6.50;84.90;;;;;;5015326;28;20090;-72
2022/04/02 12:03:24;;;;;;;3.10;1.27;;;6.30;90.70;;;;;;4999508;28;20041;-72
2022/04/02 12:05:50;;;;;;;4.22;1.40;;;6.50;93.00;;;;;;4994642;28;20095;-71
2022/04/02 12:08:30;;;;;;;4.75;1.20;;;6.50;85.10;;;;;;4999268;28;20374;-71
2022/04/02 12:10:57;;;;;;;2.63;1.13;;;6.30;74.90;;;;;;5015335;28;20561;-71
2022/04/02 12:13:23;;;;;;;6.50;1.55;;;6.30;77.90;;;;;;4994736;28;20038;-71
2022/04/02 12:16:04;;;;;;;2.63;1.05;;;6.20;82.50;;;;;;5003396;28;20457;-71
2022/04/02 12:18:30;;;;;;;4.57;1.20;;;6.40;80.50;;;;;;5009366;28;20508;-72
2022/04/02 12:21:05;;;;;;;4.38;1.10;;;6.60;72.40;;;;;;5014721;28;20057;-73
2022/04/02 12:23:31;;;;;;;2.83;1.05;;;6.70;79.50;;;;;;5014981;28;20459;-73
2022/04/02 12:25:59;;;;;;;2.63;1.20;;;6.80;74.30;;;;;;5015211;28;20485;-74
2022/04/02 12:28:25;;;;;;;2.00;0.82;;;7.00;66.30;;;;;;5014820;28;20067;-74
2022/04/02 12:30:52;;;;;;;2.75;0.98;;;7.20;64.40;;;;;;4997026;28;20049;-74
2022/04/02 12:33:23;;;;;;;3.67;1.83;;;7.20;65.80;;;;;;4995389;28;20482;-74
2022/04/02 12:36:09;;;;;;;3.03;1.08;;;7.30;64.10;;;;;;4995049;28;20050;-74
2022/04/02 12:38:40;;;;;;;2.95;1.20;;;7.40;61.60;;;;;;4995480;28;20041;-74
2022/04/02 12:41:21;;;;;;;3.63;1.20;;;7.40;62.50;;;;;;4978887;28;20065;-74
2022/04/02 12:43:48;;;;;;;2.90;1.13;;;7.60;62.80;;;;;;4995046;28;20041;-74
2022/04/02 12:46:23;;;;;;;3.20;1.10;;;7.60;59.80;;;;;;4995528;28;20048;-77
2022/04/02 12:48:49;;;;;;;2.28;1.02;;;7.50;59.50;;;;;;4994887;28;20049;-77
2022/04/02 12:51:17;;;;;;;2.63;1.08;;;7.40;61.00;;;;;;4995066;28;20046;-75
2022/04/02 12:53:55;;;;;;;4.97;1.33;;;7.40;64.20;;;;;;4979169;28;20629;-74
2022/04/02 12:56:35;;;;;;;3.72;1.50;;;7.40;64.50;;;;;;4997856;28;20038;-74
2022/04/02 12:59:01;;;;;;;3.63;1.42;;;7.40;63.50;;;;;;4998853;28;20049;-74
2022/04/02 13:01:33;;;;;;;5.07;1.52;;;7.60;67.20;;;;;;5012921;28;20124;-74
2022/04/02 13:04:03;;;;;;;4.73;1.40;;;7.50;63.50;;;;;;5001539;28;20088;-74
2022/04/02 13:06:32;;;;;;;4.10;1.50;;;7.30;65.10;;;;;;5001668;28;20128;-74
2022/04/02 13:08:59;;;;;;;6.15;1.52;;;7.20;69.60;;;;;;4998812;28;20058;-75
2022/04/02 13:11:47;;;;;;;3.15;1.10;;;7.10;65.00;;;;;;4998131;28;20034;-74
2022/04/02 13:14:18;;;;;;;2.88;1.30;;;6.90;66.00;;;;;;5013233;28;20405;-74
2022/04/02 13:16:48;;;;;;;2.00;1.10;;;6.80;62.10;;;;;;5001894;28;20037;-74
2022/04/02 13:22:12;;;;;;;3.83;1.40;;;6.60;60.30;;;;;;5002208;28;20115;-75